Time;durP1;ratioP1;P1;durP2;ratioP2;P2;SDS_P1;SDS_P2;PMS_P1;PMS_P2;Temp;Humidity;BMP_temperature;BMP_pressure;BME280_temperature;BME280_humidity;BME280_pressure;Samples;Min_cycle;Max_cycle;Signal;HPM_P1;HPM_P2
2022/05/16 00:02:14;;;;;;;9.45;2.55;;;;;;;-142.75;100.00;76523.06;5029443;28;19936;-71
2022/05/16 00:04:40;;;;;;;;;;;;;;;-142.75;100.00;76528.97;5029868;28;20029;-71
2022/05/16 00:07:06;;;;;;;11.48;2.60;;;;;;;-142.75;100.00;76540.75;5029545;28;19983;-71
2022/05/16 00:09:31;;;;;;;;;;;;;;;-142.75;100.00;76540.75;5029420;28;21175;-71
2022/05/16 00:11:57;;;;;;;9.48;2.47;;;;;;;-142.75;100.00;76550.59;5029331;28;20333;-71
2022/05/16 00:14:22;;;;;;;;;;;;;;;-142.75;100.00;76546.66;5029574;28;20052;-71
2022/05/16 00:16:47;;;;;;;8.10;2.30;;;;;;;-142.75;100.00;76546.66;5029780;28;19917;-72
2022/05/16 00:19:12;;;;;;;;;;;;;;;-142.75;100.00;76542.72;5029424;28;20028;-71
2022/05/16 00:21:38;;;;;;;11.02;2.85;;;;;;;-142.75;100.00;76548.63;5029242;28;19913;-71
2022/05/16 00:24:03;;;;;;;;;;;;;;;-142.75;100.00;76546.66;5029338;28;20061;-71
2022/05/16 00:26:29;;;;;;;10.70;2.47;;;;;;;-142.75;100.00;76546.66;5029178;28;19913;-70
2022/05/16 00:28:54;;;;;;;;;;;;;;;-142.75;100.00;76544.69;5029281;28;20021;-72
2022/05/16 00:31:19;;;;;;;6.38;2.35;;;;;;;-142.75;100.00;76544.69;5027915;28;20405;-71
2022/05/16 00:33:44;;;;;;;;;;;;;;;-142.75;100.00;76548.63;5029379;28;20036;-71
2022/05/16 00:36:10;;;;;;;8.07;2.80;;;;;;;-142.75;100.00;76554.53;5029337;28;19920;-71
2022/05/16 00:38:35;;;;;;;;;;;;;;;-142.75;100.00;76550.59;5027861;28;20017;-71
2022/05/16 00:41:02;;;;;;;8.23;2.50;;;;;;;-142.75;100.00;76550.59;5028856;28;19917;-71
2022/05/16 00:43:47;;;;;;;9.30;2.58;;;;;;;-142.75;100.00;76558.47;5027490;28;20171;-71
2022/05/16 00:46:15;;;;;;;11.07;3.38;;;;;;;-142.75;100.00;76554.53;5029046;28;20032;-71
2022/05/16 00:48:40;;;;;;;6.57;2.67;;;;;;;-142.75;100.00;76558.47;5027842;28;20021;-71
2022/05/16 00:51:06;;;;;;;;;;;;;;;-142.75;100.00;76562.41;5029306;28;20029;-70
2022/05/16 00:53:32;;;;;;;7.05;2.75;;;;;;;-142.75;100.00;76562.41;5027701;28;19913;-72
2022/05/16 00:55:57;;;;;;;;;;;;;;;-142.75;100.00;76568.31;5029505;28;20036;-72
2022/05/16 00:58:22;;;;;;;12.68;2.70;;;;;;;-142.75;100.00;76562.41;5027335;28;19928;-71
2022/05/16 01:00:48;;;;;;;;;;;;;;;-142.75;100.00;76566.34;5029280;28;20510;-71
2022/05/16 01:06:07;;;;;;;11.73;3.10;;;;;;;-142.75;100.00;76578.16;5028372;28;20292;-71
2022/05/16 01:08:34;;;;;;;;;;;;;;;-142.75;100.00;76574.22;5029748;28;20100;-71
2022/05/16 01:11:05;;;;;;;6.18;2.78;;;;;;;-142.75;100.00;76584.06;5032043;28;19986;-71
2022/05/16 01:13:31;;;;;;;9.40;2.97;;;;;;;-142.75;100.00;76586.03;5032159;28;20056;-71
2022/05/16 01:15:57;;;;;;;;;;;;;;;-142.75;100.00;76597.84;5032676;28;20486;-71
2022/05/16 01:18:24;;;;;;;6.68;3.05;;;;;;;-142.75;100.00;76605.72;5032423;28;19964;-71
2022/05/16 01:21:02;;;;;;;10.00;2.88;;;;;;;-142.75;100.00;76609.66;5031983;28;20032;-71
2022/05/16 01:23:47;;;;;;;8.50;2.75;;;;;;;-142.75;100.00;76607.69;5032119;28;20395;-71
2022/05/16 01:26:17;;;;;;;11.30;3.45;;;;;;;-142.75;100.00;76621.47;5032086;28;20025;-70
2022/05/16 01:28:42;;;;;;;8.43;2.65;;;;;;;-142.75;100.00;76621.47;5031636;28;20032;-71
2022/05/16 01:31:08;;;;;;;;;;;;;;;-142.75;100.00;76617.53;5032397;28;20030;-71
2022/05/16 01:33:34;;;;;;;8.82;3.05;;;;;;;-142.75;100.00;76621.47;5031935;28;20268;-71
2022/05/16 01:35:59;;;;;;;10.65;3.40;;;;;;;-142.75;100.00;76621.47;5032124;28;20482;-71
2022/05/16 01:38:28;;;;;;;;;;;;;;;-142.75;100.00;76623.44;5032044;28;20025;-71
2022/05/16 01:40:57;;;;;;;10.60;2.90;;;;;;;-142.75;100.00;76621.47;5031311;28;19913;-70
2022/05/16 01:43:29;;;;;;;9.40;3.33;;;;;;;-142.75;100.00;76621.47;5031728;28;20021;-70
2022/05/16 01:45:55;;;;;;;10.07;2.80;;;;;;;-142.75;100.00;76617.53;5031796;28;20036;-71
2022/05/16 01:48:21;;;;;;;10.85;3.20;;;;;;;-142.75;100.00;76619.50;5031591;28;20021;-70
2022/05/16 01:50:47;;;;;;;;;;;;;;;-142.75;100.00;76625.41;5032039;28;20029;-71
2022/05/16 01:53:14;;;;;;;15.05;3.25;;;;;;;-142.75;100.00;76631.31;5031651;28;19913;-71
2022/05/16 01:55:39;;;;;;;9.90;3.03;;;;;;;-142.75;100.00;76637.22;5031395;28;20450;-70
2022/05/16 01:58:05;;;;;;;;;;;;;;;-142.75;100.00;76635.25;5031811;28;20025;-71
2022/05/16 02:00:31;;;;;;;10.70;3.20;;;;;;;-142.75;100.00;76643.13;5030112;28;19913;-71
2022/05/16 02:02:57;;;;;;;8.38;3.17;;;;;;;-142.75;100.00;76643.13;5031522;28;20018;-71
2022/05/16 02:05:23;;;;;;;;;;;;;;;-142.75;100.00;76647.06;5031704;28;20030;-71
2022/05/16 02:07:50;;;;;;;4.45;2.25;;;;;;;-142.75;100.00;76647.06;5031217;28;19913;-71
2022/05/16 02:10:16;;;;;;;9.20;3.00;;;;;;;-142.75;100.00;76647.06;5029675;28;20025;-72
2022/05/16 02:12:42;;;;;;;10.45;3.03;;;;;;;-142.75;100.00;76654.94;5027392;28;20053;-71
2022/05/16 02:15:09;;;;;;;;;;;;;;;-142.75;100.00;76649.03;5030381;28;20072;-71
2022/05/16 02:17:34;;;;;;;11.73;2.83;;;;;;;-142.75;100.00;76651.00;5030216;28;19921;-72
2022/05/16 02:19:59;;;;;;;;;;;;;;;-142.75;100.00;76645.09;5028946;28;20020;-71
2022/05/16 02:25:09;;;;;;;12.85;3.30;;;;;;;-142.75;100.00;76652.97;5031303;28;20426;-71
2022/05/16 02:27:34;;;;;;;;;;;;;;;-142.75;100.00;76649.03;5031363;28;20021;-72
2022/05/16 02:30:00;;;;;;;8.43;3.63;;;;;;;-142.75;100.00;76633.28;5030326;28;20385;-71
2022/05/16 02:32:25;;;;;;;;;;;;;;;-142.75;100.00;76645.09;5031251;28;20109;-71
2022/05/16 02:34:50;;;;;;;11.73;2.63;;;;;;;-142.75;100.00;76641.16;5030758;28;19917;-71
2022/05/16 02:37:16;;;;;;;;;;;;;;;-142.75;100.00;76641.16;5031274;28;20025;-72
2022/05/16 02:39:44;;;;;;;9.93;2.97;;;;;;;-142.75;100.00;76639.19;5049941;22;19921;-70
2022/05/16 02:42:10;;;;;;;9.95;3.40;;;;;;;-142.75;100.00;76645.09;5027840;28;20017;-71
2022/05/16 02:44:35;;;;;;;;;;;;;;;-142.75;100.00;76649.03;5030656;28;20033;-68
2022/05/16 02:47:01;;;;;;;12.27;3.10;;;;;;;-142.75;100.00;76641.16;5030836;28;20409;-70
2022/05/16 02:49:27;;;;;;;;;;;;;;;-142.75;100.00;76651.00;5030599;28;20045;-70
2022/05/16 02:51:52;;;;;;;7.60;2.85;;;;;;;-142.75;100.00;76654.94;5029667;28;20299;-70
2022/05/16 02:54:18;;;;;;;;;;;;;;;-142.75;100.00;76666.75;5030660;28;20044;-70
2022/05/16 02:56:43;;;;;;;8.68;3.50;;;;;;;-142.75;100.00;76658.88;5030333;28;20385;-70
2022/05/16 02:59:08;;;;;;;;;;;;;;;-142.75;100.00;76649.03;5030452;28;20467;-70
2022/05/16 03:01:34;;;;;;;9.57;3.53;;;;;;;-142.75;100.00;76651.00;5028857;28;19996;-70
2022/05/16 03:04:01;;;;;;;9.45;3.53;;;;;;;-142.75;100.00;76656.91;5030056;28;20542;-70
2022/05/16 03:06:26;;;;;;;9.95;3.63;;;;;;;-142.75;100.00;76656.91;5030242;28;20037;-69
2022/05/16 03:08:51;;;;;;;;;;;;;;;-142.75;100.00;76660.84;5030183;28;20055;-70
2022/05/16 03:11:16;;;;;;;10.02;3.55;;;;;;;-142.75;100.00;76652.97;5029879;28;19920;-70
2022/05/16 03:13:42;;;;;;;;;;;;;;;-142.75;100.00;76652.97;5030461;28;20029;-70
2022/05/16 03:16:07;;;;;;;9.50;3.30;;;;;;;-142.75;100.00;76652.97;5030028;28;20283;-69
2022/05/16 03:18:32;;;;;;;;;;;;;;;-142.75;100.00;76647.06;5030619;28;20048;-70
2022/05/16 03:20:58;;;;;;;12.32;3.40;;;;;;;-142.75;100.00;76645.09;5028384;28;19913;-70
2022/05/16 03:23:24;;;;;;;;;;;;;;;-142.75;100.00;76652.97;5030255;28;20434;-69
2022/05/16 03:25:49;;;;;;;8.32;3.60;;;;;;;-142.75;100.00;76664.78;5029849;28;19967;-70
2022/05/16 03:28:15;;;;;;;;;;;;;;;-142.75;100.00;76664.78;5029919;28;20025;-70
2022/05/16 03:30:41;;;;;;;14.43;4.07;;;;;;;-142.75;100.00;76656.91;5028229;28;19913;-70
2022/05/16 03:33:09;;;;;;;8.50;3.53;;;;;;;-142.75;100.00;76660.84;5029573;28;20021;-70
2022/05/16 03:35:34;;;;;;;8.70;4.05;;;;;;;-142.75;100.00;76664.78;5029665;28;20538;-70
2022/05/16 03:38:00;;;;;;;;;;;;;;;-142.75;100.00;76660.84;5029957;28;20029;-70
2022/05/16 03:40:45;;;;;;;10.18;4.07;;;;;;;-142.75;100.00;76672.66;5029388;28;19967;-70
2022/05/16 03:43:13;;;;;;;8.95;3.35;;;;;;;-142.75;100.00;76666.75;5029592;28;20021;-70
2022/05/16 03:45:39;;;;;;;10.15;4.32;;;;;;;-142.75;100.00;76658.88;5028133;28;20027;-70
2022/05/16 03:48:05;;;;;;;;;;;;;;;-142.75;100.00;76660.84;5030072;28;20122;-70
2022/05/16 03:50:30;;;;;;;12.73;4.35;;;;;;;-142.75;100.00;76652.97;5029378;28;19913;-70
2022/05/16 03:52:58;;;;;;;;;;;;;;;-142.75;100.00;76660.84;5028080;28;20017;-70
2022/05/16 03:55:23;;;;;;;;;;;;;;;-142.75;100.00;76660.84;5029933;28;19913;-70
2022/05/16 03:57:48;;;;;;;11.35;3.83;;;;;;;-142.75;100.00;76660.84;5029221;28;19959;-70
2022/05/16 04:00:15;;;;;;;;;;;;;;;-142.75;100.00;76652.97;5029507;28;20088;-70
2022/05/16 04:02:41;;;;;;;11.50;3.22;;;;;;;-142.75;100.00;76651.00;5029376;28;19975;-70
2022/05/16 04:05:07;;;;;;;;;;;;;;;-142.75;100.00;76672.66;5029772;28;20025;-70
2022/05/16 04:07:33;;;;;;;13.18;4.22;;;;;;;-142.75;100.00;76662.81;5029462;28;19913;-70
2022/05/16 04:09:59;;;;;;;12.38;4.22;;;;;;;-142.75;100.00;76664.78;5028970;28;20433;-70
2022/05/16 04:12:24;;;;;;;;;;;;;;;-142.75;100.00;76652.97;5029730;28;20025;-70
2022/05/16 04:14:50;;;;;;;12.23;4.15;;;;;;;-142.75;100.00;76645.09;5029257;28;19995;-70
2022/05/16 04:17:15;;;;;;;;;;;;;;;-142.75;100.00;76652.97;5029828;28;20021;-70
2022/05/16 04:19:40;;;;;;;10.38;3.75;;;;;;;-142.75;100.00;76652.97;5029023;28;19958;-70
2022/05/16 04:22:05;;;;;;;;;;;;;;;-142.75;100.00;76660.84;5029631;28;20037;-70
2022/05/16 04:24:30;;;;;;;11.85;4.22;;;;;;;-142.75;100.00;76656.91;5029356;28;19921;-70
2022/05/16 04:26:56;;;;;;;;;;;;;;;-142.75;100.00;76654.94;5029441;28;20060;-70
2022/05/16 04:29:21;;;;;;;10.38;4.53;;;;;;;-142.75;100.00;76649.03;5028724;28;19917;-70
2022/05/16 04:31:46;;;;;;;;;;;;;;;-142.75;100.00;76649.03;5029553;28;20483;-70
2022/05/16 04:34:11;;;;;;;7.68;4.28;;;;;;;-142.75;100.00;76647.06;5029129;28;19932;-70
2022/05/16 04:36:37;;;;;;;;;;;;;;;-142.75;100.00;76639.19;5028355;28;20036;-71
2022/05/16 04:39:03;;;;;;;10.65;4.35;;;;;;;-142.75;100.00;76633.28;5028808;28;19917;-70
2022/05/16 04:44:12;;;;;;;11.68;4.43;;;;;;;-142.75;100.00;76625.41;5031349;28;20036;-70
2022/05/16 04:46:37;;;;;;;;;;;;;;;-142.75;100.00;76617.53;5031727;28;20402;-70
2022/05/16 04:49:03;;;;;;;10.32;4.57;;;;;;;-142.75;100.00;76597.84;5032807;28;19916;-70
2022/05/16 04:51:28;;;;;;;;;;;;;;;-142.75;100.00;76588.00;5033092;28;20401;-70
2022/05/16 04:53:53;;;;;;;9.30;4.45;;;;;;;-142.75;100.00;76578.16;5032666;28;19912;-70
2022/05/16 04:56:18;;;;;;;;;;;;;;;-142.75;100.00;76570.28;5032952;28;20025;-70
2022/05/16 04:58:44;;;;;;;7.05;3.97;;;;;;;-142.75;100.00;76564.38;5032373;28;19913;-71
2022/05/16 05:01:09;;;;;;;;;;;;;;;-142.75;100.00;76564.38;5032874;28;20441;-70
2022/05/16 05:03:34;;;;;;;11.27;4.65;;;;;;;-142.75;100.00;76562.41;5032539;28;19913;-70
2022/05/16 05:06:00;;;;;;;;;;;;;;;-142.75;100.00;76568.31;5032875;28;20060;-70
2022/05/16 05:08:25;;;;;;;11.65;4.78;;;;;;;-142.75;100.00;76560.44;5030905;28;19916;-70
2022/05/16 05:16:21;;;;;;;12.07;4.40;;;;;;;-142.75;100.00;76540.75;5032615;28;20099;-70
2022/05/16 05:18:46;;;;;;;8.70;4.25;;;;;;;-142.75;100.00;76534.84;5032193;28;20029;-70
2022/05/16 05:21:11;;;;;;;;;;;;;;;-142.75;100.00;76536.84;5032559;28;20030;-70
2022/05/16 05:23:39;;;;;;;10.75;4.32;;;;;;;-142.75;100.00;76534.84;5032145;28;19948;-70
2022/05/16 05:26:05;;;;;;;11.55;4.43;;;;;;;-142.75;100.00;76538.78;5031865;28;20017;-70
2022/05/16 05:28:31;;;;;;;11.13;4.38;;;;;;;-142.75;100.00;76530.91;5030385;28;20426;-70
2022/05/16 05:30:57;;;;;;;;;;;;;;;-142.75;100.00;76519.13;5032372;28;20029;-70
2022/05/16 05:33:22;;;;;;;9.65;4.57;;;;;;;-142.75;100.00;76515.19;5031782;28;19920;-70
2022/05/16 05:35:47;;;;;;;;;;;;;;;-142.75;100.00;76517.16;5032386;28;20049;-70
2022/05/16 05:38:13;;;;;;;9.30;4.55;;;;;;;-142.75;100.00;76511.25;5030419;28;19913;-70
2022/05/16 05:40:38;;;;;;;;;;;;;;;-142.75;100.00;76511.25;5032120;28;20067;-70
2022/05/16 05:43:05;;;;;;;8.88;4.70;;;;;;;-142.75;100.00;76515.19;5031554;28;19913;-70
2022/05/16 05:45:31;;;;;;;11.40;4.93;;;;;;;-142.75;100.00;76521.09;5031796;28;20029;-69
2022/05/16 05:47:56;;;;;;;;;;;;;;;-142.75;100.00;76521.09;5030961;28;20430;-70
2022/05/16 05:50:21;;;;;;;10.23;4.75;;;;;;;-142.75;100.00;76521.09;5030050;28;19917;-69
2022/05/16 05:52:46;;;;;;;;;;;;;;;-142.75;100.00;76530.91;5032043;28;20498;-70
2022/05/16 05:55:12;;;;;;;12.82;4.95;;;;;;;-142.75;100.00;76528.97;5031385;28;19920;-69
2022/05/16 05:57:37;;;;;;;;;;;;;;;-142.75;100.00;76525.03;5031904;28;20053;-69
2022/05/16 06:00:05;;;;;;;13.63;4.60;;;;;;;-142.75;100.00;76532.88;5030969;28;20382;-69
2022/05/16 06:02:30;;;;;;;8.30;4.88;;;;;;;-142.75;100.00;76538.78;5031422;28;20028;-71
2022/05/16 06:04:55;;;;;;;;;;;;;;;-142.75;100.00;76530.91;5031752;28;20025;-71
2022/05/16 06:07:21;;;;;;;12.23;5.05;;;;;;;-142.75;100.00;76530.91;5031181;28;19975;-71
2022/05/16 06:09:46;;;;;;;;;;;;;;;-142.75;100.00;76530.91;5031202;28;20132;-71
2022/05/16 06:12:11;;;;;;;11.75;5.70;;;;;;;-142.75;100.00;76532.88;5029977;28;20397;-70
2022/05/16 06:14:36;;;;;;;;;;;;;;;-142.75;100.00;76523.06;5030729;28;20083;-70
2022/05/16 06:17:02;;;;;;;11.48;5.32;;;;;;;-142.75;100.00;76517.16;5030126;28;20302;-69
2022/05/16 06:19:27;;;;;;;;;;;;;;;-142.75;100.00;76509.28;5030713;28;20025;-70
2022/05/16 06:21:53;;;;;;;11.77;5.38;;;;;;;-142.75;100.00;76507.31;5030291;28;20314;-70
2022/05/16 06:27:02;;;;;;;10.15;5.32;;;;;;;-142.75;100.00;76483.69;5029909;28;19963;-71
2022/05/16 06:29:28;;;;;;;;;;;;;;;-142.75;100.00;76475.81;5029748;28;20479;-70
2022/05/16 06:31:53;;;;;;;13.18;4.63;;;;;;;-142.75;100.00;76464.00;5030012;28;19913;-71
2022/05/16 06:34:19;;;;;;;;;;;;;;;-142.75;100.00;76458.09;5030274;28;20033;-70
2022/05/16 06:36:45;;;;;;;11.15;4.63;;;;;;;-142.75;100.00;76432.50;5029747;28;19921;-70
2022/05/16 06:39:10;;;;;;;;;;;;;;;-142.75;100.00;76422.66;5029948;28;20052;-71
2022/05/16 06:41:35;;;;;;;11.18;4.95;;;;;;;-142.75;100.00;76410.84;5029311;28;19913;-71
2022/05/16 06:44:01;;;;;;;13.15;4.97;;;;;;;-142.75;100.00;76401.00;5029885;28;20022;-71
2022/05/16 06:46:26;;;;;;;;;;;;;;;-142.75;100.00;76369.50;5029872;28;20026;-71
2022/05/16 06:48:52;;;;;;;11.20;5.78;;;;;;;-142.75;100.00;76343.94;5028412;28;20302;-70
2022/05/16 06:51:17;;;;;;;;;;;;;;;-142.75;100.00;76304.56;5028824;28;20037;-70
2022/05/16 06:53:43;;;;;;;17.40;5.00;;;;;;;-142.75;100.00;76269.13;5029474;28;20003;-71
2022/05/16 06:56:09;;;;;;;11.77;5.20;;;;;;;-142.75;100.00;76259.28;5029186;28;20032;-71
2022/05/16 06:58:34;;;;;;;13.75;5.47;;;;;;;-142.75;100.00;76239.59;5028188;28;20025;-70
2022/05/16 07:01:00;;;;;;;12.40;5.03;;;;;;;-142.75;100.00;76210.06;5029293;28;20663;-71
2022/05/16 07:03:25;;;;;;;9.23;4.35;;;;;;;-142.75;100.00;76176.63;5029409;28;20120;-70
2022/05/16 07:05:51;;;;;;;8.02;4.38;;;;;;;-142.75;100.00;76154.97;5028866;28;20414;-70
2022/05/16 07:08:19;;;;;;;7.30;3.53;;;;;;;-142.75;100.00;76135.28;5028734;28;20033;-70
2022/05/16 07:10:46;;;;;;;5.97;3.47;;;;;;;-142.75;100.00;76111.66;5028832;28;20098;-70
2022/05/16 07:13:12;;;;;;;8.10;3.30;;;;;;;-142.75;100.00;76070.34;5029358;28;20064;-70
2022/05/16 07:15:38;;;;;;;8.20;3.83;;;;;;;-142.75;100.00;76064.44;5029143;28;20045;-69
2022/05/16 07:18:03;;;;;;;6.05;3.45;;;;;;;-142.75;100.00;76060.50;5029243;28;20091;-70
2022/05/16 07:20:28;;;;;;;7.90;3.08;;;;;;;-142.75;100.00;76060.50;5028485;28;20013;-71
2022/05/16 07:22:54;;;;;;;14.18;4.18;;;;;;;-142.75;100.00;76070.34;5027164;28;20064;-71
2022/05/16 07:25:25;;;;;;;7.93;3.78;;;;;;;-142.75;100.00;76072.31;5028824;28;20486;-70
2022/05/16 07:27:56;;;;;;;6.97;3.45;;;;;;;-142.75;100.00;76076.22;5029002;28;20422;-71
2022/05/16 07:30:32;;;;;;;7.57;3.60;;;;;;;-142.75;100.00;76078.19;5028874;28;20140;-71
2022/05/16 07:32:58;;;;;;;8.82;3.58;;;;;;;-142.75;100.00;76078.19;5028912;28;20026;-71
2022/05/16 07:35:28;;;;;;;11.10;3.30;;;;;;;-142.75;100.00;76070.34;5028455;28;20103;-70
2022/05/16 07:37:54;;;;;;;9.50;3.60;;;;;;;-142.75;100.00;76064.44;5028773;28;20033;-70
2022/05/16 07:40:22;;;;;;;7.13;3.08;;;;;;;-142.75;100.00;76060.50;5027028;28;20047;-70
2022/05/16 07:42:49;;;;;;;9.20;3.55;;;;;;;-142.75;100.00;76058.53;5028604;28;20029;-70
2022/05/16 07:45:14;;;;;;;8.93;3.80;;;;;;;-142.75;100.00;76046.72;5028677;28;20033;-70
2022/05/16 07:47:39;;;;;;;6.45;3.83;;;;;;;-142.75;100.00;76030.97;5028821;28;20040;-71
2022/05/16 07:50:07;;;;;;;9.40;4.07;;;;;;;-142.75;100.00;75995.53;5028275;28;20453;-70
2022/05/16 07:52:33;;;;;;;8.18;3.50;;;;;;;-142.75;100.00;75979.78;5028635;28;20407;-70
2022/05/16 07:54:59;;;;;;;7.75;3.65;;;;;;;-142.75;100.00;75964.03;5027020;28;20025;-69
2022/05/16 07:57:25;;;;;;;6.38;3.47;;;;;;;-142.75;100.00;75952.25;5028577;28;20108;-70
2022/05/16 07:59:50;;;;;;;8.85;3.03;;;;;;;-142.75;100.00;75938.47;5028229;28;20112;-71
2022/05/16 08:02:15;;;;;;;12.70;3.80;;;;;;;-142.75;100.00;75883.34;5028193;28;20029;-69
2022/05/16 08:04:41;;;;;;;13.52;3.40;;;;;;;-142.75;100.00;75814.47;5028504;28;20399;-70
2022/05/16 08:07:07;;;;;;;6.95;3.20;;;;;;;-142.75;100.00;75755.44;5028568;28;20638;-71
2022/05/16 08:12:32;;;;;;;5.95;2.80;;;;;;;-142.75;100.00;75641.28;5026150;28;20125;-68
2022/05/16 08:14:58;;;;;;;5.60;2.20;;;;;;;-142.75;100.00;75568.47;5026993;28;20026;-69
2022/05/16 08:17:24;;;;;;;8.30;2.55;;;;;;;-142.75;100.00;75515.31;5026968;28;20037;-68
2022/05/16 08:19:50;;;;;;;4.57;2.28;;;;;;;-142.75;100.00;75489.75;5030309;28;20030;-68
2022/05/16 08:22:17;;;;;;;5.38;1.95;;;;;;;-142.75;100.00;75452.34;5031025;28;20056;-68
2022/05/16 08:24:42;;;;;;;5.97;1.70;;;;;;;-142.75;100.00;75436.59;5031931;28;20108;-68
2022/05/16 08:27:08;;;;;;;4.05;1.98;;;;;;;-142.75;100.00;75428.75;5032314;28;20128;-68
2022/05/16 08:29:33;;;;;;;5.53;2.00;;;;;;;-142.75;100.00;75422.84;5031584;28;20061;-69
2022/05/16 08:31:59;;;;;;;9.20;2.47;;;;;;;-142.75;100.00;75389.38;5031862;28;20056;-68
2022/05/16 08:34:25;;;;;;;6.03;1.88;;;;;;;-142.75;100.00;75373.63;5032559;28;20055;-68
2022/05/16 08:39:52;;;;;;;5.05;1.67;;;;;;;-142.75;95.58;75330.34;5032531;28;20122;-69
2022/05/16 08:42:23;;;;;;;4.38;1.35;;;;;;;-142.75;94.03;75342.16;5032540;28;20047;-69
2022/05/16 08:45:01;;;;;;;7.20;2.08;;;;;;;-142.75;94.35;75302.78;5032582;28;20131;-69
2022/05/16 08:47:55;;;;;;;4.45;1.58;;;;;;;-142.75;92.24;75251.63;5032263;28;20057;-68
2022/05/16 08:50:30;;;;;;;6.53;1.67;;;;;;;-142.75;83.91;75200.47;5032601;28;20040;-69
2022/05/16 08:53:06;;;;;;;4.15;1.27;;;;;;;-142.75;82.33;75172.91;5032313;28;20111;-69
2022/05/16 08:55:40;;;;;;;9.57;1.55;;;;;;;-142.75;81.33;75137.50;5014842;28;20038;-69
2022/05/16 08:58:27;;;;;;;3.55;1.55;;;;;;;-142.75;80.48;75117.81;5030676;28;20430;-69
2022/05/16 09:00:56;;;;;;;4.47;1.45;;;;;;;-142.75;82.79;75100.09;5030815;28;20040;-70
2022/05/16 09:03:26;;;;;;;4.07;1.60;;;;;;;-142.75;81.19;75086.34;5032218;28;20040;-69
2022/05/16 09:06:03;;;;;;;5.35;1.73;;;;;;;-142.75;77.43;75066.66;5030743;28;20033;-69
2022/05/16 09:08:50;;;;;;;5.32;1.27;;;;;;;-142.75;76.32;75058.78;5031696;28;20033;-68
2022/05/16 09:11:27;;;;;;;2.53;1.25;;;;;;;-142.75;76.11;75060.75;5031003;28;20040;-69
2022/05/16 09:14:26;;;;;;;6.00;1.50;;;;;;;-142.75;74.88;75082.41;5032203;28;20043;-69
2022/05/16 09:17:02;;;;;;;6.03;1.70;;;;;;;-142.75;76.58;75086.34;5032259;28;20021;-69
2022/05/16 09:19:39;;;;;;;10.25;1.80;;;;;;;-142.75;78.74;75080.44;5030711;28;20025;-69
2022/05/16 09:22:13;;;;;;;4.57;1.80;;;;;;;-142.75;78.34;75064.69;5031853;28;20068;-69
2022/05/16 09:24:49;;;;;;;4.57;1.63;;;;;;;-142.75;74.01;75045.00;5031989;28;20025;-69
2022/05/16 09:30:06;;;;;;;4.55;1.42;;;;;;;-142.75;73.34;75054.84;5030924;28;20454;-69
2022/05/16 09:32:36;;;;;;;3.75;1.52;;;;;;;-142.75;73.67;75058.78;5031684;28;20113;-69
2022/05/16 09:35:04;;;;;;;4.05;2.03;;;;;;;-142.75;72.47;75094.22;5031758;28;20025;-69
2022/05/16 09:37:29;;;;;;;6.13;1.80;;;;;;;-142.75;77.91;75054.84;5027796;28;20503;-68
2022/05/16 09:39:55;;;;;;;5.00;1.67;;;;;;;-142.75;76.69;75023.38;5025358;28;20025;-69
2022/05/16 09:42:32;;;;;;;4.38;1.70;;;;;;;-142.75;72.51;75009.59;5030156;28;20025;-69
2022/05/16 09:45:03;;;;;;;5.63;2.30;;;;;;;-142.75;73.86;75031.25;5031180;28;20033;-69
2022/05/16 09:47:29;;;;;;;4.68;1.85;;;;;;;-142.75;75.33;75121.75;5031430;28;20027;-69
2022/05/16 09:50:24;;;;;;;5.50;1.88;;;;;;;-142.75;80.57;75188.66;5030330;28;20029;-69
2022/05/16 09:53:02;;;;;;;6.22;1.70;;;;;;;-142.75;81.77;75263.44;5030209;28;20048;-68
2022/05/16 09:55:53;;;;;;;6.63;2.20;;;;;;;-142.75;85.22;75373.63;5030985;28;20479;-68
2022/05/16 09:58:41;;;;;;;5.63;1.92;;;;;;;-142.75;86.95;75434.66;5030903;28;20112;-69
2022/05/16 10:01:08;;;;;;;4.55;1.75;;;;;;;-142.75;90.71;75479.91;5023610;28;20352;-69
2022/05/16 10:03:42;;;;;;;3.88;2.28;;;;;;;-142.75;95.62;75538.94;5031090;28;20025;-67
2022/05/16 10:06:25;;;;;;;6.63;2.60;;;;;;;-142.75;100.00;75582.25;5031064;28;20067;-69
2022/05/16 10:08:50;;;;;;;6.43;2.20;;;;;;;-142.75;100.00;75633.41;5030556;28;20041;-68
2022/05/16 10:11:21;;;;;;;8.10;2.65;;;;;;;-142.75;100.00;75674.72;5031148;28;20029;-69
2022/05/16 10:13:47;;;;;;;6.78;2.25;;;;;;;-142.75;100.00;75721.97;5030826;28;20487;-67
2022/05/16 10:16:15;;;;;;;5.70;2.25;;;;;;;-142.75;100.00;75769.19;5030584;28;20025;-68
2022/05/16 10:19:11;;;;;;;8.15;2.60;;;;;;;-142.75;100.00;75814.47;5029496;28;20044;-67
2022/05/16 10:21:41;;;;;;;5.60;2.15;;;;;;;-142.75;100.00;75842.03;5022354;28;20038;-68
2022/05/16 10:24:10;;;;;;;2.83;1.90;;;;;;;-142.75;100.00;75845.97;5029692;28;20486;-68
2022/05/16 10:26:39;;;;;;;6.15;2.25;;;;;;;-142.75;100.00;75863.66;5031452;28;20021;-68
2022/05/16 10:29:08;;;;;;;6.72;2.53;;;;;;;-142.75;100.00;75895.16;5030837;28;20057;-68
2022/05/16 10:34:35;;;;;;;7.70;2.78;;;;;;;-142.75;100.00;75914.84;5031378;28;20040;-68
2022/05/16 10:37:02;;;;;;;7.30;2.92;;;;;;;-142.75;100.00;75930.59;5031388;28;20100;-68
2022/05/16 10:39:29;;;;;;;8.55;2.90;;;;;;;-142.75;100.00;75928.63;5030447;28;20047;-68
2022/05/16 10:42:04;;;;;;;7.47;3.15;;;;;;;-142.75;100.00;75948.31;5030269;28;20021;-68
2022/05/16 10:44:39;;;;;;;8.98;3.72;;;;;;;-142.75;100.00;75944.38;5031256;28;20037;-67
2022/05/16 10:47:16;;;;;;;10.18;4.28;;;;;;;-142.75;100.00;75962.09;5029624;28;20033;-68
2022/05/16 10:50:13;;;;;;;12.57;4.32;;;;;;;-142.75;100.00;75960.13;5030489;28;20488;-68
2022/05/16 10:52:44;;;;;;;8.00;4.43;;;;;;;-142.75;100.00;75964.03;5027704;28;20033;-68
2022/05/16 10:55:10;;;;;;;7.90;4.97;;;;;;;-142.75;100.00;75985.69;5030616;28;20037;-68
2022/05/16 10:57:55;;;;;;;9.30;5.25;;;;;;;-142.75;100.00;76007.34;5030639;28;20033;-68
2022/05/16 11:00:32;;;;;;;11.68;6.28;;;;;;;-142.75;100.00;76019.16;5030700;28;20029;-68
2022/05/16 11:03:31;;;;;;;9.50;6.20;;;;;;;-142.75;100.00;76023.09;5030684;28;20029;-68
2022/05/16 11:06:02;;;;;;;13.45;7.65;;;;;;;-142.75;100.00;76052.63;5030836;28;20029;-68
2022/05/16 11:08:58;;;;;;;19.08;8.82;;;;;;;-142.75;100.00;76090.00;5030042;28;20029;-67
2022/05/16 11:11:40;;;;;;;15.18;9.32;;;;;;;-142.75;100.00;76093.94;5029185;28;20029;-67
2022/05/16 11:14:36;;;;;;;16.70;9.52;;;;;;;-142.75;100.00;76111.66;5030200;28;20495;-67
2022/05/16 11:17:33;;;;;;;20.67;11.02;;;;;;;-142.75;100.00;76129.38;5030297;28;20037;-67
2022/05/16 11:20:06;;;;;;;19.83;10.90;;;;;;;-142.75;100.00;76162.84;5019037;28;20033;-67
2022/05/16 11:22:39;;;;;;;17.33;9.60;;;;;;;-142.75;100.00;76190.41;5029136;28;20037;-67
2022/05/16 11:25:10;;;;;;;10.75;5.80;;;;;;;-142.75;100.00;76202.19;5028641;28;20031;-67
2022/05/16 11:28:15;;;;;;;13.48;4.88;;;;;;;-142.75;100.00;76214.00;5030158;28;20029;-67
2022/05/16 11:30:53;;;;;;;14.93;5.82;;;;;;;-142.75;100.00;76223.84;5029999;28;20036;-66
2022/05/16 11:33:34;;;;;;;11.82;5.65;;;;;;;-142.75;100.00;76241.56;5030259;28;20039;-66
2022/05/16 11:36:20;;;;;;;13.88;5.13;;;;;;;-142.75;100.00;76267.16;5030200;28;20040;-66
2022/05/16 11:39:12;;;;;;;20.52;6.30;;;;;;;-142.75;100.00;76300.63;5022067;28;20029;-66
2022/05/16 11:42:03;;;;;;;14.05;5.97;;;;;;;-142.75;100.00;76310.47;5028485;28;20025;-66
2022/05/16 11:44:42;;;;;;;10.75;5.30;;;;;;;-142.75;100.00;76326.22;5030210;28;20050;-66
2022/05/16 11:50:13;;;;;;;15.45;6.10;;;;;;;-142.75;100.00;76391.16;5052990;22;20052;-71
2022/05/16 11:53:02;;;;;;;15.60;6.78;;;;;;;-142.75;100.00;76391.16;5029584;28;20025;-71
2022/05/16 12:01:36;;;;;;;14.35;6.55;;;;;;;-142.75;100.00;76393.13;5030719;28;20087;-71
2022/05/16 12:04:22;;;;;;;19.98;7.15;;;;;;;-142.75;100.00;76369.50;5030736;28;20395;-71
2022/05/16 12:06:58;;;;;;;17.67;7.28;;;;;;;-142.75;100.00;76341.97;5030594;28;20506;-71
2022/05/16 12:09:25;;;;;;;18.50;7.55;;;;;;;-142.75;100.00;76239.59;5030212;28;20510;-72